createdAt,value
2023-10-25T00:00:49.363Z,21.90
2023-10-25T00:03:16.660Z,23.15
2023-10-25T00:05:44.065Z,23.33
2023-10-25T00:08:11.289Z,26.13
2023-10-25T00:10:39.979Z,23.25
2023-10-25T00:13:07.239Z,23.13
2023-10-25T00:15:34.531Z,19.92
2023-10-25T00:18:01.835Z,31.23
2023-10-25T00:20:29.137Z,22.27
2023-10-25T00:22:56.399Z,21.15
2023-10-25T00:25:23.619Z,25.23
2023-10-25T00:27:52.252Z,19.85
2023-10-25T00:30:19.502Z,22.02
2023-10-25T00:32:46.824Z,27.65
2023-10-25T00:35:14.083Z,18.92
2023-10-25T00:37:41.369Z,21.92
2023-10-25T00:40:09.391Z,19.88
2023-10-25T00:42:36.682Z,20.45
2023-10-25T00:45:05.572Z,23.23
2023-10-25T00:47:32.863Z,27.35
2023-10-25T00:50:00.431Z,23.17
2023-10-25T00:52:27.766Z,24.33
2023-10-25T00:54:55.076Z,21.73
2023-10-25T00:57:22.383Z,30.83
2023-10-25T00:59:49.611Z,17.33
2023-10-25T01:02:18.324Z,24.90
2023-10-25T01:04:45.700Z,20.10
2023-10-25T01:07:12.984Z,18.02
2023-10-25T01:09:40.478Z,19.73
2023-10-25T01:12:08.437Z,20.90
2023-10-25T01:14:35.701Z,23.23
2023-10-25T01:17:03.052Z,19.83
2023-10-25T01:19:31.908Z,22.27
2023-10-25T01:21:59.246Z,19.08
2023-10-25T01:24:27.945Z,17.77
2023-10-25T01:26:55.164Z,16.80
2023-10-25T01:29:22.399Z,19.33
2023-10-25T01:31:49.735Z,19.13
2023-10-25T01:34:17.112Z,17.10
2023-10-25T01:36:44.503Z,18.17
2023-10-25T01:39:11.864Z,18.73
2023-10-25T01:41:40.476Z,18.10
2023-10-25T01:44:07.838Z,17.52
2023-10-25T01:46:35.177Z,18.17
2023-10-25T01:49:02.544Z,15.43
2023-10-25T01:51:29.869Z,19.70
2023-10-25T01:53:57.130Z,17.95
2023-10-25T01:56:24.448Z,16.50
2023-10-25T01:58:53.073Z,19.08
2023-10-25T02:01:20.388Z,14.68
2023-10-25T02:03:47.810Z,25.15
2023-10-25T02:06:15.623Z,20.48
2023-10-25T02:08:42.977Z,21.42
2023-10-25T02:11:10.278Z,23.92
2023-10-25T02:13:37.593Z,20.63
2023-10-25T02:16:13.820Z,17.30
2023-10-25T02:18:41.120Z,19.60
2023-10-25T02:21:08.405Z,15.38
2023-10-25T02:23:35.616Z,14.50
2023-10-25T02:26:02.892Z,19.58
2023-10-25T02:28:30.172Z,16.50
2023-10-25T02:30:57.447Z,17.83
2023-10-25T02:33:26.133Z,17.92
2023-10-25T02:35:54.126Z,16.75
2023-10-25T02:38:21.398Z,18.50
2023-10-25T02:40:48.638Z,15.50
2023-10-25T02:43:15.948Z,23.42
2023-10-25T02:45:43.317Z,13.90
2023-10-25T02:48:10.763Z,16.80
2023-10-25T02:50:39.957Z,17.95
2023-10-25T02:53:07.475Z,17.25
2023-10-25T02:55:34.895Z,14.75
2023-10-25T02:58:02.179Z,15.50
2023-10-25T03:00:29.581Z,13.35
2023-10-25T03:02:56.913Z,11.68
2023-10-25T03:05:24.380Z,19.17
2023-10-25T03:07:53.014Z,20.35
2023-10-25T03:10:20.335Z,18.40
2023-10-25T03:12:47.697Z,11.57
2023-10-25T03:15:15.024Z,18.52
2023-10-25T03:17:42.318Z,15.07
2023-10-25T03:20:09.920Z,17.05
2023-10-25T03:22:37.194Z,11.05
2023-10-25T03:25:06.527Z,14.95
2023-10-25T03:27:33.841Z,11.15
2023-10-25T03:30:01.193Z,15.95
2023-10-25T03:32:28.485Z,22.50
2023-10-25T03:34:55.751Z,23.50
2023-10-25T03:37:23.063Z,15.98
2023-10-25T03:39:50.681Z,13.40
2023-10-25T03:42:19.321Z,13.73
2023-10-25T03:44:46.642Z,18.85
2023-10-25T03:47:13.895Z,16.02
2023-10-25T03:49:41.393Z,20.20
2023-10-25T03:52:08.865Z,17.67
2023-10-25T03:54:38.587Z,15.65
2023-10-25T03:57:06.022Z,24.70
2023-10-25T03:59:34.652Z,22.33
2023-10-25T04:02:02.022Z,17.65
2023-10-25T04:04:29.441Z,15.45
2023-10-25T04:06:57.472Z,15.68
2023-10-25T04:09:24.758Z,16.75
2023-10-25T04:11:52.018Z,15.38
2023-10-25T04:14:19.348Z,17.58
2023-10-25T04:16:48.241Z,15.55
2023-10-25T04:19:15.990Z,19.15
2023-10-25T04:21:43.377Z,15.73
2023-10-25T04:24:10.849Z,18.25
2023-10-25T04:26:38.123Z,19.98
2023-10-25T04:29:05.400Z,22.90
2023-10-25T04:31:32.737Z,21.15
2023-10-25T04:34:01.374Z,21.25
2023-10-25T04:36:28.623Z,15.65
2023-10-25T04:38:55.877Z,18.33
2023-10-25T04:41:23.263Z,15.68
2023-10-25T04:43:50.504Z,17.50
2023-10-25T04:46:17.810Z,20.60
2023-10-25T04:48:46.382Z,22.55
2023-10-25T04:51:15.266Z,18.73
2023-10-25T04:53:42.567Z,21.75
2023-10-25T04:56:09.828Z,19.77
2023-10-25T04:58:37.103Z,19.63
2023-10-25T05:01:11.855Z,16.25
2023-10-25T05:03:39.226Z,16.73
2023-10-25T05:06:07.236Z,21.48
2023-10-25T05:08:36.514Z,18.40
2023-10-25T05:11:05.406Z,16.50
2023-10-25T05:13:32.874Z,17.15
2023-10-25T05:16:00.383Z,15.90
2023-10-25T05:18:28.405Z,16.52
2023-10-25T05:20:59.333Z,14.13
2023-10-25T05:23:29.127Z,19.20
2023-10-25T05:25:58.233Z,12.70
2023-10-25T05:28:25.970Z,14.68
2023-10-25T05:30:55.007Z,16.38
2023-10-25T05:33:25.103Z,16.77
2023-10-25T05:35:52.677Z,15.40
2023-10-25T05:38:20.249Z,16.38
2023-10-25T05:40:49.041Z,21.60
2023-10-25T05:43:21.575Z,17.80
2023-10-25T05:45:48.956Z,21.98
2023-10-25T05:48:16.691Z,17.10
2023-10-25T05:50:44.332Z,18.33
2023-10-25T05:53:11.821Z,14.02
2023-10-25T05:55:39.484Z,12.60
2023-10-25T05:58:06.969Z,17.38
2023-10-25T06:00:36.052Z,19.88
2023-10-25T06:03:06.140Z,16.38
2023-10-25T06:05:35.755Z,18.75
2023-10-25T06:08:03.262Z,23.40
2023-10-25T06:10:30.896Z,16.05
2023-10-25T06:12:58.536Z,19.55
2023-10-25T06:15:25.793Z,17.95
2023-10-25T06:17:54.520Z,21.52
2023-10-25T06:20:21.816Z,17.92
2023-10-25T06:22:49.085Z,29.55
2023-10-25T06:25:16.451Z,15.38
2023-10-25T06:27:43.754Z,17.38
2023-10-25T06:30:11.360Z,19.83
2023-10-25T06:32:38.604Z,23.05
2023-10-25T06:35:07.660Z,18.92
2023-10-25T06:37:35.140Z,14.57
2023-10-25T06:40:02.761Z,25.15
2023-10-25T06:42:30.287Z,23.38
2023-10-25T06:44:57.866Z,24.58
2023-10-25T06:47:25.568Z,25.85
2023-10-25T06:49:53.201Z,23.45
2023-10-25T06:52:22.384Z,22.70
2023-10-25T06:54:49.949Z,22.63
2023-10-25T06:57:17.508Z,18.08
2023-10-25T06:59:45.089Z,11.77
2023-10-25T07:02:18.634Z,15.85
2023-10-25T07:04:48.955Z,13.07
2023-10-25T07:07:19.007Z,12.98
2023-10-25T07:09:48.174Z,16.42
2023-10-25T07:12:15.449Z,10.27
2023-10-25T07:14:44.362Z,10.73
2023-10-25T07:17:11.864Z,10.40
2023-10-25T07:19:39.140Z,10.00
2023-10-25T07:22:06.469Z,8.73
2023-10-25T07:24:33.785Z,8.63
2023-10-25T07:27:02.469Z,9.68
2023-10-25T07:29:29.769Z,9.93
2023-10-25T07:31:57.066Z,10.98
2023-10-25T07:34:24.469Z,13.57
2023-10-25T07:36:51.758Z,8.63
2023-10-25T07:39:19.059Z,8.15
2023-10-25T07:41:46.361Z,8.48
2023-10-25T07:44:15.104Z,12.52
2023-10-25T07:46:42.457Z,9.63
2023-10-25T07:49:09.887Z,8.55
2023-10-25T07:51:37.150Z,6.68
2023-10-25T07:54:04.531Z,5.90
2023-10-25T07:59:01.962Z,9.90
2023-10-25T08:01:30.681Z,7.15
2023-10-25T08:03:58.068Z,8.77
2023-10-25T08:06:25.351Z,7.18
2023-10-25T08:08:52.770Z,8.25
2023-10-25T08:11:20.101Z,9.07
2023-10-25T08:13:47.389Z,8.43
2023-10-25T08:16:14.684Z,11.63
2023-10-25T08:18:43.384Z,7.10
2023-10-25T08:21:13.773Z,6.15
2023-10-25T08:23:41.101Z,11.27
2023-10-25T08:26:08.473Z,6.85
2023-10-25T08:28:36.025Z,11.15
2023-10-25T08:31:11.082Z,10.90
2023-10-25T08:33:38.491Z,7.32
2023-10-25T08:36:08.021Z,7.57
2023-10-25T08:38:35.860Z,8.65
2023-10-25T08:41:03.816Z,7.13
2023-10-25T08:43:31.368Z,8.45
2023-10-25T08:45:59.310Z,10.38
2023-10-25T08:48:27.205Z,8.27
2023-10-25T08:50:54.562Z,8.52
2023-10-25T08:53:26.453Z,4.38
2023-10-25T08:55:53.845Z,7.35
2023-10-25T08:58:21.692Z,9.45
2023-10-25T09:00:50.869Z,6.13
2023-10-25T09:03:37.129Z,7.75
2023-10-25T09:06:05.385Z,7.75
2023-10-25T09:08:34.485Z,5.57
2023-10-25T09:11:02.555Z,4.53
2023-10-25T09:13:29.883Z,4.20
2023-10-25T09:16:04.228Z,10.90
2023-10-25T09:18:32.025Z,4.78
2023-10-25T09:21:10.952Z,10.35
2023-10-25T09:23:40.995Z,5.85
2023-10-25T09:26:15.041Z,5.75
2023-10-25T09:28:43.275Z,4.25
2023-10-25T09:31:21.289Z,14.30
2023-10-25T09:33:48.675Z,8.40
2023-10-25T09:36:15.979Z,7.07
2023-10-25T09:38:44.682Z,5.78
2023-10-25T09:41:13.712Z,3.75
2023-10-25T09:43:42.283Z,8.38
2023-10-25T09:46:10.950Z,4.45
2023-10-25T09:48:38.797Z,4.15
2023-10-25T09:51:08.483Z,4.30
2023-10-25T09:53:38.376Z,6.32
2023-10-25T09:56:09.604Z,4.90
2023-10-25T09:58:37.282Z,6.22
2023-10-25T10:01:05.111Z,4.90
2023-10-25T10:03:39.190Z,6.28
2023-10-25T10:06:10.544Z,5.10
2023-10-25T10:08:40.918Z,7.45
2023-10-25T10:11:12.117Z,4.20
2023-10-25T10:13:39.416Z,3.50
2023-10-25T10:16:07.757Z,7.40
2023-10-25T10:18:35.610Z,1.80
2023-10-25T10:21:03.466Z,6.38
2023-10-25T10:23:35.385Z,2.97
2023-10-25T10:26:02.669Z,6.75
2023-10-25T10:28:44.123Z,3.92
2023-10-25T10:31:11.794Z,5.03
2023-10-25T10:33:45.505Z,5.97
2023-10-25T10:36:13.070Z,8.98
2023-10-25T10:38:58.704Z,13.65
2023-10-25T10:41:29.213Z,5.20
2023-10-25T10:43:58.164Z,6.13
2023-10-25T10:46:28.229Z,5.72
2023-10-25T10:48:57.238Z,7.78
2023-10-25T10:51:24.624Z,5.97
2023-10-25T10:53:51.935Z,4.25
2023-10-25T10:56:19.243Z,7.97
2023-10-25T10:58:46.854Z,7.13
2023-10-25T11:01:15.667Z,8.02
2023-10-25T11:03:43.093Z,7.13
2023-10-25T11:06:10.741Z,14.30
2023-10-25T11:08:38.107Z,7.90
2023-10-25T11:11:05.448Z,8.32
2023-10-25T11:13:32.777Z,10.50
2023-10-25T11:16:03.431Z,8.25
2023-10-25T11:18:32.269Z,10.02
2023-10-25T11:21:01.306Z,8.10
2023-10-25T11:23:28.789Z,11.07
2023-10-25T11:25:56.090Z,8.77
2023-10-25T11:28:23.453Z,8.30
2023-10-25T11:30:51.539Z,4.40
2023-10-25T11:33:18.934Z,5.82
2023-10-25T11:35:47.696Z,6.28
2023-10-25T11:38:15.585Z,5.97
2023-10-25T11:40:43.708Z,8.45
2023-10-25T11:43:11.265Z,3.42
2023-10-25T11:45:38.981Z,2.72
2023-10-25T11:48:07.015Z,6.13
2023-10-25T11:50:34.466Z,5.25
2023-10-25T11:53:03.376Z,6.53
2023-10-25T11:55:30.691Z,7.75
2023-10-25T11:57:58.062Z,4.85
2023-10-25T12:00:25.371Z,5.47
2023-10-25T12:02:52.726Z,4.90
2023-10-25T12:05:20.108Z,6.43
2023-10-25T12:07:47.370Z,6.15
2023-10-25T12:10:16.059Z,6.90
2023-10-25T12:12:43.365Z,3.95
2023-10-25T12:15:10.820Z,6.60
2023-10-25T12:17:38.186Z,6.07
2023-10-25T12:20:22.705Z,3.45
2023-10-25T12:22:53.124Z,4.43
2023-10-25T12:25:21.833Z,4.15
2023-10-25T12:27:49.101Z,8.00
2023-10-25T12:30:16.436Z,6.35
2023-10-25T12:32:43.811Z,5.38
2023-10-25T12:35:11.117Z,3.22
2023-10-25T12:37:38.402Z,13.18
2023-10-25T12:40:06.319Z,3.53
2023-10-25T12:42:35.308Z,5.20
2023-10-25T12:45:02.565Z,3.13
2023-10-25T12:47:29.938Z,5.55
2023-10-25T12:49:57.212Z,5.97
2023-10-25T12:52:24.468Z,3.40
2023-10-25T12:54:51.737Z,3.58
2023-10-25T12:57:18.993Z,3.22
2023-10-25T12:59:47.697Z,4.32
2023-10-25T13:02:15.010Z,5.07
2023-10-25T13:04:42.497Z,4.63
2023-10-25T13:07:10.043Z,3.78
2023-10-25T13:09:37.688Z,3.00
2023-10-25T13:12:06.600Z,2.97
2023-10-25T13:14:35.631Z,4.03
2023-10-25T13:17:18.928Z,2.75
2023-10-25T13:19:47.406Z,1.90
2023-10-25T13:22:14.725Z,1.80
2023-10-25T13:24:42.265Z,1.98
2023-10-25T13:27:09.818Z,1.63
2023-10-25T13:29:37.196Z,2.05
2023-10-25T13:32:06.125Z,2.78
2023-10-25T13:34:33.390Z,3.88
2023-10-25T13:37:00.714Z,3.63
2023-10-25T13:39:28.018Z,3.17
2023-10-25T13:41:55.326Z,2.05
2023-10-25T13:44:22.629Z,1.95
2023-10-25T13:46:49.939Z,2.33
2023-10-25T13:49:18.638Z,2.50
2023-10-25T13:51:46.493Z,6.00
2023-10-25T13:54:13.800Z,3.22
2023-10-25T13:56:41.118Z,3.25
2023-10-25T13:59:08.399Z,2.40
2023-10-25T14:01:35.699Z,3.05
2023-10-25T14:04:03.144Z,4.18
2023-10-25T14:06:31.955Z,1.63
2023-10-25T14:08:59.315Z,3.90
2023-10-25T14:11:26.660Z,2.35
2023-10-25T14:13:53.920Z,4.45
2023-10-25T14:16:21.304Z,2.28
2023-10-25T14:18:48.725Z,2.35
2023-10-25T14:21:18.079Z,3.10
2023-10-25T14:23:47.817Z,4.35
2023-10-25T14:26:15.204Z,4.28
2023-10-25T14:28:42.469Z,1.20
2023-10-25T14:31:14.447Z,4.68
2023-10-25T14:33:41.853Z,3.63
2023-10-25T14:36:12.723Z,3.33
2023-10-25T14:38:39.958Z,3.50
2023-10-25T14:41:09.522Z,2.38
2023-10-25T14:43:37.205Z,2.55
2023-10-25T14:46:04.491Z,4.35
2023-10-25T14:48:31.910Z,1.92
2023-10-25T14:50:59.301Z,3.55
2023-10-25T14:53:26.685Z,3.65
2023-10-25T14:55:53.945Z,2.85
2023-10-25T14:58:22.627Z,2.92
2023-10-25T15:00:49.918Z,5.07
2023-10-25T15:03:17.356Z,1.63
2023-10-25T15:05:44.772Z,3.40
2023-10-25T15:08:12.203Z,2.10
2023-10-25T15:10:39.497Z,1.52
2023-10-25T15:13:06.765Z,2.75
2023-10-25T15:15:35.453Z,3.08
2023-10-25T15:18:02.911Z,3.63
2023-10-25T15:20:30.425Z,2.20
2023-10-25T15:22:57.769Z,3.47
2023-10-25T15:25:25.062Z,3.40
2023-10-25T15:27:52.385Z,3.03
2023-10-25T15:30:19.866Z,1.52
2023-10-25T15:32:48.714Z,1.40
2023-10-25T15:35:16.122Z,1.40
2023-10-25T15:37:43.432Z,1.30
2023-10-25T15:40:17.440Z,2.25
2023-10-25T15:42:46.783Z,2.00
2023-10-25T15:45:14.461Z,3.60
2023-10-25T15:47:42.049Z,5.03
2023-10-25T15:50:11.443Z,1.48
2023-10-25T15:52:38.800Z,5.70
2023-10-25T15:55:07.860Z,3.17
2023-10-25T15:57:35.152Z,5.22
2023-10-25T16:00:02.616Z,2.00
2023-10-25T16:02:29.976Z,6.90
2023-10-25T16:04:57.360Z,1.38
2023-10-25T16:07:26.077Z,19.00
2023-10-25T16:09:53.476Z,8.13
2023-10-25T16:12:20.720Z,6.80
2023-10-25T16:14:48.098Z,6.10
2023-10-25T16:17:15.383Z,5.88
2023-10-25T16:19:42.900Z,4.15
2023-10-25T16:22:10.424Z,4.93
2023-10-25T16:24:39.104Z,2.40
2023-10-25T16:27:06.365Z,3.03
2023-10-25T16:29:33.729Z,2.38
2023-10-25T16:32:01.089Z,2.97
2023-10-25T16:34:29.196Z,4.78
2023-10-25T16:37:04.654Z,2.72
2023-10-25T16:39:33.498Z,4.40
2023-10-25T16:42:02.311Z,2.75
2023-10-25T16:44:29.670Z,5.72
2023-10-25T16:46:57.002Z,4.25
2023-10-25T16:49:24.287Z,1.40
2023-10-25T16:51:51.628Z,1.48
2023-10-25T16:54:18.915Z,2.50
2023-10-25T16:56:46.253Z,4.40
2023-10-25T16:59:14.962Z,2.70
2023-10-25T17:01:42.342Z,4.13
2023-10-25T17:04:09.852Z,4.25
2023-10-25T17:06:37.332Z,4.45
2023-10-25T17:09:04.710Z,2.88
2023-10-25T17:11:32.270Z,5.50
2023-10-25T17:13:59.523Z,7.13
2023-10-25T17:16:28.185Z,3.60
2023-10-25T17:18:55.501Z,3.05
2023-10-25T17:21:24.565Z,2.63
2023-10-25T17:23:51.941Z,2.00
2023-10-25T17:26:19.256Z,6.03
2023-10-25T17:28:46.565Z,3.53
2023-10-25T17:31:13.800Z,2.00
2023-10-25T17:33:42.512Z,2.17
2023-10-25T17:36:10.318Z,2.58
2023-10-25T17:38:37.742Z,3.28
2023-10-25T17:41:05.438Z,2.50
2023-10-25T17:43:32.736Z,2.63
2023-10-25T17:46:11.438Z,3.22
2023-10-25T17:48:39.665Z,9.10
2023-10-25T17:51:09.072Z,6.97
2023-10-25T17:53:36.708Z,3.95
2023-10-25T17:56:04.046Z,3.22
2023-10-25T17:58:31.362Z,3.88
2023-10-25T18:00:58.650Z,3.53
2023-10-25T18:03:26.129Z,3.85
2023-10-25T18:05:53.700Z,4.47
2023-10-25T18:08:22.648Z,3.53
2023-10-25T18:10:50.133Z,3.25
2023-10-25T18:13:18.614Z,4.18
2023-10-25T18:15:46.164Z,4.95
2023-10-25T18:18:13.564Z,4.40
2023-10-25T18:20:40.965Z,3.58
2023-10-25T18:23:08.220Z,5.63
2023-10-25T18:25:36.904Z,3.45
2023-10-25T18:28:04.276Z,3.90
2023-10-25T18:31:54.647Z,4.57
2023-10-25T18:33:19.289Z,8.48
2023-10-25T18:35:46.834Z,4.90
2023-10-25T18:38:14.137Z,5.20
2023-10-25T18:40:42.773Z,3.63
2023-10-25T18:43:10.212Z,4.75
2023-10-25T18:45:37.511Z,4.82
2023-10-25T18:48:05.083Z,7.97
2023-10-25T18:50:34.750Z,3.63
2023-10-25T18:53:02.100Z,4.85
2023-10-25T18:55:29.404Z,4.13
2023-10-25T18:57:58.109Z,10.07
2023-10-25T19:00:25.623Z,6.75
2023-10-25T19:02:53.042Z,3.38
2023-10-25T19:06:29.237Z,3.40
2023-10-25T19:08:22.675Z,4.28
2023-10-25T19:10:54.378Z,3.58
2023-10-25T19:13:23.103Z,5.53
2023-10-25T19:15:50.362Z,4.40
2023-10-25T19:18:17.777Z,3.55
2023-10-25T19:20:45.179Z,3.03
2023-10-25T19:23:12.642Z,10.05
2023-10-25T19:25:40.456Z,12.20
2023-10-25T19:28:07.732Z,9.98
2023-10-25T19:30:36.531Z,9.25
2023-10-25T19:33:04.057Z,7.18
2023-10-25T19:35:31.867Z,5.03
2023-10-25T19:37:59.286Z,3.38
2023-10-25T19:40:26.822Z,5.80
2023-10-25T19:42:54.084Z,4.00
2023-10-25T19:45:21.388Z,6.88
2023-10-25T19:47:50.243Z,4.68
2023-10-25T19:50:17.583Z,7.15
2023-10-25T19:52:45.012Z,3.00
2023-10-25T19:55:12.294Z,4.47
2023-10-25T19:57:39.617Z,6.10
2023-10-25T20:00:07.892Z,5.65
2023-10-25T20:02:35.324Z,3.10
2023-10-25T20:05:04.130Z,4.45
2023-10-25T20:07:31.483Z,4.40
2023-10-25T20:09:58.758Z,7.40
2023-10-25T20:12:26.456Z,3.25
2023-10-25T20:14:53.747Z,4.43
2023-10-25T20:17:21.059Z,3.28
2023-10-25T20:19:51.439Z,5.35
2023-10-25T20:22:20.135Z,6.60
2023-10-25T20:24:47.414Z,5.63
2023-10-25T20:27:14.779Z,8.57
2023-10-25T20:29:42.159Z,5.80
2023-10-25T20:32:09.755Z,6.35
2023-10-25T20:34:37.000Z,7.57
2023-10-25T20:37:04.499Z,9.70
2023-10-25T20:39:33.195Z,12.20
2023-10-25T20:42:00.499Z,6.38
2023-10-25T20:44:27.755Z,8.95
2023-10-25T20:46:55.010Z,7.35
2023-10-25T20:49:22.234Z,7.75
2023-10-25T20:51:49.505Z,6.40
2023-10-25T20:54:16.759Z,7.72
2023-10-25T20:56:45.469Z,8.02
2023-10-25T20:59:12.728Z,5.07
2023-10-25T21:01:40.189Z,8.80
2023-10-25T21:04:07.561Z,5.80
2023-10-25T21:06:34.987Z,5.13
2023-10-25T21:09:02.408Z,7.20
2023-10-25T21:11:30.081Z,8.88
2023-10-25T21:13:58.914Z,3.85
2023-10-25T21:16:26.224Z,4.40
2023-10-25T21:18:53.599Z,4.25
2023-10-25T21:21:21.008Z,6.18
2023-10-25T21:23:48.384Z,8.73
2023-10-25T21:26:15.660Z,7.28
2023-10-25T21:28:42.955Z,6.20
2023-10-25T21:31:11.727Z,6.30
2023-10-25T21:33:39.185Z,7.82
2023-10-25T21:36:07.433Z,6.85
2023-10-25T21:38:34.841Z,9.00
2023-10-25T21:41:02.804Z,8.15
2023-10-25T21:43:30.154Z,7.63
2023-10-25T21:45:57.590Z,7.22
2023-10-25T21:48:27.451Z,7.03
2023-10-25T21:50:58.479Z,9.50
2023-10-25T21:53:25.861Z,6.40
2023-10-25T21:56:23.296Z,6.45
2023-10-25T21:59:47.048Z,6.28
2023-10-25T22:01:28.531Z,5.68
2023-10-25T22:03:57.273Z,5.20
2023-10-25T22:06:24.637Z,6.03
2023-10-25T22:08:51.897Z,4.35
2023-10-25T22:11:19.248Z,3.47
2023-10-25T22:13:46.510Z,3.72
2023-10-25T22:16:13.814Z,2.88
2023-10-25T22:18:41.244Z,4.05
2023-10-25T22:21:10.111Z,3.35
2023-10-25T22:23:37.361Z,6.90
2023-10-25T22:26:04.793Z,5.75
2023-10-25T22:28:32.030Z,6.05
2023-10-25T22:31:03.201Z,6.05
2023-10-25T22:33:30.654Z,3.50
2023-10-25T22:36:00.333Z,4.18
2023-10-25T22:38:29.073Z,4.88
2023-10-25T22:40:56.318Z,3.75
2023-10-25T22:43:23.593Z,4.55
2023-10-25T22:45:50.875Z,4.57
2023-10-25T22:48:18.454Z,3.63
2023-10-25T22:50:52.947Z,4.28
2023-10-25T22:53:20.330Z,4.47
2023-10-25T22:55:49.030Z,4.28
2023-10-25T22:58:16.539Z,3.58
2023-10-25T23:00:44.165Z,3.80
2023-10-25T23:03:11.607Z,3.47
2023-10-25T23:05:39.137Z,3.60
2023-10-25T23:08:06.516Z,3.25
2023-10-25T23:10:33.818Z,3.42
2023-10-25T23:13:02.510Z,2.83
2023-10-25T23:15:29.760Z,4.85
2023-10-25T23:17:57.173Z,2.38
2023-10-25T23:20:24.617Z,2.40
2023-10-25T23:22:51.856Z,3.45
2023-10-25T23:25:19.152Z,7.28
2023-10-25T23:27:46.531Z,4.55
2023-10-25T23:30:15.777Z,5.68
2023-10-25T23:32:43.170Z,2.75
2023-10-25T23:35:10.452Z,2.40
2023-10-25T23:37:37.722Z,1.80
2023-10-25T23:40:05.293Z,3.03
2023-10-25T23:42:32.522Z,3.33
2023-10-25T23:45:00.110Z,1.85
2023-10-25T23:47:28.905Z,3.35
2023-10-25T23:49:56.217Z,2.97
2023-10-25T23:52:23.451Z,2.10
2023-10-25T23:54:55.979Z,1.77
2023-10-25T23:57:23.681Z,2.30
2023-10-25T23:59:51.228Z,2.40
